sensor_id;sensor_type;location;lat;lon;timestamp;temperature;humidity
51613;DHT22;37694;51.748;14.326;2023-05-10T00:00:39;24.50;40.20
51613;DHT22;37694;51.748;14.326;2023-05-10T00:03:05;24.60;40.40
51613;DHT22;37694;51.748;14.326;2023-05-10T00:05:31;24.50;40.20
51613;DHT22;37694;51.748;14.326;2023-05-10T00:07:57;24.50;40.40
51613;DHT22;37694;51.748;14.326;2023-05-10T00:10:23;24.50;40.20
51613;DHT22;37694;51.748;14.326;2023-05-10T00:12:48;24.50;40.20
51613;DHT22;37694;51.748;14.326;2023-05-10T00:15:14;24.50;40.30
51613;DHT22;37694;51.748;14.326;2023-05-10T00:17:40;24.50;40.20
51613;DHT22;37694;51.748;14.326;2023-05-10T00:20:06;24.50;40.20
51613;DHT22;37694;51.748;14.326;2023-05-10T00:22:33;24.50;40.30
51613;DHT22;37694;51.748;14.326;2023-05-10T00:24:59;24.50;40.30
51613;DHT22;37694;51.748;14.326;2023-05-10T00:27:25;24.50;40.30
51613;DHT22;37694;51.748;14.326;2023-05-10T00:29:50;24.50;40.30
51613;DHT22;37694;51.748;14.326;2023-05-10T00:32:16;24.50;40.40
51613;DHT22;37694;51.748;14.326;2023-05-10T00:34:42;24.50;40.40
51613;DHT22;37694;51.748;14.326;2023-05-10T00:37:08;24.40;40.30
51613;DHT22;37694;51.748;14.326;2023-05-10T00:39:33;24.40;40.40
51613;DHT22;37694;51.748;14.326;2023-05-10T00:41:59;24.50;40.50
51613;DHT22;37694;51.748;14.326;2023-05-10T00:44:25;24.40;40.40
51613;DHT22;37694;51.748;14.326;2023-05-10T00:46:51;24.40;40.40
51613;DHT22;37694;51.748;14.326;2023-05-10T00:49:17;24.40;40.50
51613;DHT22;37694;51.748;14.326;2023-05-10T00:51:44;24.40;40.60
51613;DHT22;37694;51.748;14.326;2023-05-10T00:54:12;24.40;40.60
51613;DHT22;37694;51.748;14.326;2023-05-10T00:56:39;24.40;40.60
51613;DHT22;37694;51.748;14.326;2023-05-10T00:59:05;24.40;40.60
51613;DHT22;37694;51.748;14.326;2023-05-10T01:01:32;24.40;40.60
51613;DHT22;37694;51.748;14.326;2023-05-10T01:03:58;24.30;40.50
51613;DHT22;37694;51.748;14.326;2023-05-10T01:06:24;24.30;40.50
51613;DHT22;37694;51.748;14.326;2023-05-10T01:08:49;24.30;40.50
51613;DHT22;37694;51.748;14.326;2023-05-10T01:11:16;24.40;40.70
51613;DHT22;37694;51.748;14.326;2023-05-10T01:13:43;24.30;40.50
51613;DHT22;37694;51.748;14.326;2023-05-10T01:16:11;24.30;40.50
51613;DHT22;37694;51.748;14.326;2023-05-10T01:18:40;24.30;40.60
51613;DHT22;37694;51.748;14.326;2023-05-10T01:35:41;24.30;40.80
51613;DHT22;37694;51.748;14.326;2023-05-10T01:38:38;24.20;40.80
51613;DHT22;37694;51.748;14.326;2023-05-10T01:44:01;24.20;40.80
51613;DHT22;37694;51.748;14.326;2023-05-10T01:46:35;24.20;40.70
51613;DHT22;37694;51.748;14.326;2023-05-10T01:49:03;24.20;40.80
51613;DHT22;37694;51.748;14.326;2023-05-10T01:51:42;24.20;40.70
51613;DHT22;37694;51.748;14.326;2023-05-10T01:54:12;24.20;40.90
51613;DHT22;37694;51.748;14.326;2023-05-10T01:56:39;24.20;40.80
51613;DHT22;37694;51.748;14.326;2023-05-10T01:59:11;24.20;40.80
51613;DHT22;37694;51.748;14.326;2023-05-10T02:01:38;24.20;40.80
51613;DHT22;37694;51.748;14.326;2023-05-10T02:04:07;24.20;40.80
51613;DHT22;37694;51.748;14.326;2023-05-10T02:06:34;24.20;41.70
51613;DHT22;37694;51.748;14.326;2023-05-10T02:09:01;24.10;40.70
51613;DHT22;37694;51.748;14.326;2023-05-10T02:11:28;24.10;40.70
51613;DHT22;37694;51.748;14.326;2023-05-10T02:13:55;24.10;40.70
51613;DHT22;37694;51.748;14.326;2023-05-10T02:16:24;24.10;40.70
51613;DHT22;37694;51.748;14.326;2023-05-10T02:18:52;24.10;40.70
51613;DHT22;37694;51.748;14.326;2023-05-10T02:21:19;24.10;40.80
51613;DHT22;37694;51.748;14.326;2023-05-10T02:23:46;24.10;40.70
51613;DHT22;37694;51.748;14.326;2023-05-10T02:26:14;24.10;40.70
51613;DHT22;37694;51.748;14.326;2023-05-10T02:28:42;24.10;40.70
51613;DHT22;37694;51.748;14.326;2023-05-10T02:31:09;24.10;40.70
51613;DHT22;37694;51.748;14.326;2023-05-10T02:33:37;24.10;40.70
51613;DHT22;37694;51.748;14.326;2023-05-10T02:36:04;24.10;40.70
51613;DHT22;37694;51.748;14.326;2023-05-10T02:38:31;24.10;40.80
51613;DHT22;37694;51.748;14.326;2023-05-10T02:40:59;24.10;40.70
51613;DHT22;37694;51.748;14.326;2023-05-10T02:43:24;24.10;40.70
51613;DHT22;37694;51.748;14.326;2023-05-10T02:45:51;24.10;40.80
51613;DHT22;37694;51.748;14.326;2023-05-10T02:48:16;24.10;40.90
51613;DHT22;37694;51.748;14.326;2023-05-10T02:50:44;24.10;40.80
51613;DHT22;37694;51.748;14.326;2023-05-10T02:53:15;24.10;40.70
51613;DHT22;37694;51.748;14.326;2023-05-10T02:55:41;24.10;40.90
51613;DHT22;37694;51.748;14.326;2023-05-10T02:58:11;24.10;40.80
51613;DHT22;37694;51.748;14.326;2023-05-10T03:00:36;24.00;40.80
51613;DHT22;37694;51.748;14.326;2023-05-10T03:03:02;24.00;40.80
51613;DHT22;37694;51.748;14.326;2023-05-10T03:05:28;24.00;40.80
51613;DHT22;37694;51.748;14.326;2023-05-10T03:07:54;24.00;40.80
51613;DHT22;37694;51.748;14.326;2023-05-10T03:10:24;24.00;40.80
51613;DHT22;37694;51.748;14.326;2023-05-10T03:13:07;24.00;40.80
51613;DHT22;37694;51.748;14.326;2023-05-10T03:16:22;24.00;40.70
51613;DHT22;37694;51.748;14.326;2023-05-10T03:21:29;23.90;40.90
51613;DHT22;37694;51.748;14.326;2023-05-10T03:23:59;23.90;40.90
51613;DHT22;37694;51.748;14.326;2023-05-10T03:26:30;23.90;40.90
51613;DHT22;37694;51.748;14.326;2023-05-10T03:28:57;23.90;40.90
51613;DHT22;37694;51.748;14.326;2023-05-10T03:31:24;23.90;41.00
51613;DHT22;37694;51.748;14.326;2023-05-10T03:33:51;23.90;41.70
51613;DHT22;37694;51.748;14.326;2023-05-10T03:36:18;23.90;40.90
51613;DHT22;37694;51.748;14.326;2023-05-10T03:38:43;23.90;40.90
51613;DHT22;37694;51.748;14.326;2023-05-10T03:41:09;23.90;40.90
51613;DHT22;37694;51.748;14.326;2023-05-10T03:43:35;23.90;41.10
51613;DHT22;37694;51.748;14.326;2023-05-10T03:46:05;23.90;41.00
51613;DHT22;37694;51.748;14.326;2023-05-10T03:48:31;23.90;41.10
51613;DHT22;37694;51.748;14.326;2023-05-10T03:50:57;23.90;41.20
51613;DHT22;37694;51.748;14.326;2023-05-10T03:53:23;23.90;41.00
51613;DHT22;37694;51.748;14.326;2023-05-10T03:55:49;23.90;41.10
51613;DHT22;37694;51.748;14.326;2023-05-10T03:58:15;23.90;41.00
51613;DHT22;37694;51.748;14.326;2023-05-10T04:00:40;23.80;40.90
51613;DHT22;37694;51.748;14.326;2023-05-10T04:03:11;23.90;40.90
51613;DHT22;37694;51.748;14.326;2023-05-10T04:05:37;23.80;40.90
51613;DHT22;37694;51.748;14.326;2023-05-10T04:08:03;23.80;40.90
51613;DHT22;37694;51.748;14.326;2023-05-10T04:10:29;23.80;40.80
51613;DHT22;37694;51.748;14.326;2023-05-10T04:12:55;23.80;40.80
51613;DHT22;37694;51.748;14.326;2023-05-10T04:15:21;23.80;40.90
51613;DHT22;37694;51.748;14.326;2023-05-10T04:17:46;23.90;40.90
51613;DHT22;37694;51.748;14.326;2023-05-10T04:20:13;23.90;40.90
51613;DHT22;37694;51.748;14.326;2023-05-10T04:22:39;23.80;40.90
51613;DHT22;37694;51.748;14.326;2023-05-10T04:25:05;23.80;40.90
51613;DHT22;37694;51.748;14.326;2023-05-10T04:27:31;23.80;40.80
51613;DHT22;37694;51.748;14.326;2023-05-10T04:29:57;23.80;40.90
51613;DHT22;37694;51.748;14.326;2023-05-10T04:32:23;23.80;40.80
51613;DHT22;37694;51.748;14.326;2023-05-10T04:34:48;23.80;40.70
51613;DHT22;37694;51.748;14.326;2023-05-10T04:37:14;23.80;40.70
51613;DHT22;37694;51.748;14.326;2023-05-10T04:39:40;23.80;40.70
51613;DHT22;37694;51.748;14.326;2023-05-10T04:42:05;23.80;40.80
51613;DHT22;37694;51.748;14.326;2023-05-10T04:44:34;23.80;40.70
51613;DHT22;37694;51.748;14.326;2023-05-10T04:47:00;23.80;40.70
51613;DHT22;37694;51.748;14.326;2023-05-10T04:49:27;23.80;40.70
51613;DHT22;37694;51.748;14.326;2023-05-10T04:51:53;23.80;40.70
51613;DHT22;37694;51.748;14.326;2023-05-10T04:54:19;23.80;40.70
51613;DHT22;37694;51.748;14.326;2023-05-10T04:56:45;23.80;40.70
51613;DHT22;37694;51.748;14.326;2023-05-10T04:59:11;23.80;40.70
51613;DHT22;37694;51.748;14.326;2023-05-10T05:01:36;23.80;40.70
51613;DHT22;37694;51.748;14.326;2023-05-10T05:04:02;23.80;40.70
51613;DHT22;37694;51.748;14.326;2023-05-10T05:06:28;23.80;40.70
51613;DHT22;37694;51.748;14.326;2023-05-10T05:08:53;23.80;40.80
51613;DHT22;37694;51.748;14.326;2023-05-10T05:11:19;23.80;40.90
51613;DHT22;37694;51.748;14.326;2023-05-10T05:13:46;23.80;41.00
51613;DHT22;37694;51.748;14.326;2023-05-10T05:16:12;23.80;41.20
51613;DHT22;37694;51.748;14.326;2023-05-10T05:18:37;23.80;41.40
51613;DHT22;37694;51.748;14.326;2023-05-10T05:21:03;23.80;41.30
51613;DHT22;37694;51.748;14.326;2023-05-10T05:23:28;23.80;41.30
51613;DHT22;37694;51.748;14.326;2023-05-10T05:25:54;23.80;41.50
51613;DHT22;37694;51.748;14.326;2023-05-10T05:28:21;23.90;41.60
51613;DHT22;37694;51.748;14.326;2023-05-10T05:30:47;23.90;41.70
51613;DHT22;37694;51.748;14.326;2023-05-10T05:33:15;23.90;41.70
51613;DHT22;37694;51.748;14.326;2023-05-10T05:35:41;23.90;41.70
51613;DHT22;37694;51.748;14.326;2023-05-10T05:38:10;23.90;41.80
51613;DHT22;37694;51.748;14.326;2023-05-10T05:40:35;23.90;41.90
51613;DHT22;37694;51.748;14.326;2023-05-10T05:43:01;23.90;41.80
51613;DHT22;37694;51.748;14.326;2023-05-10T05:45:27;23.90;41.70
51613;DHT22;37694;51.748;14.326;2023-05-10T05:47:52;23.90;41.70
51613;DHT22;37694;51.748;14.326;2023-05-10T05:50:18;23.90;41.70
51613;DHT22;37694;51.748;14.326;2023-05-10T05:52:43;23.90;41.70
51613;DHT22;37694;51.748;14.326;2023-05-10T05:55:09;23.90;41.70
51613;DHT22;37694;51.748;14.326;2023-05-10T05:57:35;23.90;41.60
51613;DHT22;37694;51.748;14.326;2023-05-10T06:00:00;23.90;41.50
51613;DHT22;37694;51.748;14.326;2023-05-10T06:02:26;23.90;41.50
51613;DHT22;37694;51.748;14.326;2023-05-10T06:04:52;23.90;41.60
51613;DHT22;37694;51.748;14.326;2023-05-10T06:07:17;23.90;41.80
51613;DHT22;37694;51.748;14.326;2023-05-10T06:09:43;23.90;41.80
51613;DHT22;37694;51.748;14.326;2023-05-10T06:12:09;23.90;41.70
51613;DHT22;37694;51.748;14.326;2023-05-10T06:14:35;23.90;41.80
51613;DHT22;37694;51.748;14.326;2023-05-10T06:17:00;23.90;41.70
51613;DHT22;37694;51.748;14.326;2023-05-10T06:19:29;23.90;41.80
51613;DHT22;37694;51.748;14.326;2023-05-10T06:21:55;23.90;41.70
51613;DHT22;37694;51.748;14.326;2023-05-10T06:24:20;23.90;41.70
51613;DHT22;37694;51.748;14.326;2023-05-10T06:26:47;23.90;41.60
51613;DHT22;37694;51.748;14.326;2023-05-10T06:29:15;23.90;41.70
51613;DHT22;37694;51.748;14.326;2023-05-10T06:31:40;23.90;42.10
51613;DHT22;37694;51.748;14.326;2023-05-10T06:34:06;24.00;41.60
51613;DHT22;37694;51.748;14.326;2023-05-10T06:36:33;24.00;41.60
51613;DHT22;37694;51.748;14.326;2023-05-10T06:38:59;24.00;41.50
51613;DHT22;37694;51.748;14.326;2023-05-10T06:41:24;24.00;41.50
51613;DHT22;37694;51.748;14.326;2023-05-10T06:43:50;24.00;41.50
51613;DHT22;37694;51.748;14.326;2023-05-10T06:46:16;24.00;41.50
51613;DHT22;37694;51.748;14.326;2023-05-10T06:48:41;24.00;41.40
51613;DHT22;37694;51.748;14.326;2023-05-10T06:51:07;24.10;41.50
51613;DHT22;37694;51.748;14.326;2023-05-10T06:53:33;24.00;41.50
51613;DHT22;37694;51.748;14.326;2023-05-10T06:55:58;24.10;41.50
51613;DHT22;37694;51.748;14.326;2023-05-10T06:58:24;24.10;41.30
51613;DHT22;37694;51.748;14.326;2023-05-10T07:00:50;24.10;41.40
51613;DHT22;37694;51.748;14.326;2023-05-10T07:03:16;24.10;41.30
51613;DHT22;37694;51.748;14.326;2023-05-10T07:05:41;24.10;41.30
51613;DHT22;37694;51.748;14.326;2023-05-10T07:08:07;24.10;41.30
51613;DHT22;37694;51.748;14.326;2023-05-10T07:10:33;24.10;41.30
51613;DHT22;37694;51.748;14.326;2023-05-10T07:13:00;24.10;41.20
51613;DHT22;37694;51.748;14.326;2023-05-10T07:15:26;24.10;41.20
51613;DHT22;37694;51.748;14.326;2023-05-10T07:17:52;24.10;41.10
51613;DHT22;37694;51.748;14.326;2023-05-10T07:20:18;24.20;41.20
51613;DHT22;37694;51.748;14.326;2023-05-10T07:22:44;24.10;41.00
51613;DHT22;37694;51.748;14.326;2023-05-10T07:25:10;24.20;41.10
51613;DHT22;37694;51.748;14.326;2023-05-10T07:27:36;24.20;41.10
51613;DHT22;37694;51.748;14.326;2023-05-10T07:30:01;24.20;41.00
51613;DHT22;37694;51.748;14.326;2023-05-10T07:32:28;24.20;41.00
51613;DHT22;37694;51.748;14.326;2023-05-10T07:34:53;24.20;41.10
51613;DHT22;37694;51.748;14.326;2023-05-10T07:37:19;24.20;41.00
51613;DHT22;37694;51.748;14.326;2023-05-10T07:39:45;24.30;40.90
51613;DHT22;37694;51.748;14.326;2023-05-10T07:42:10;24.30;40.90
51613;DHT22;37694;51.748;14.326;2023-05-10T07:44:36;24.30;41.00
51613;DHT22;37694;51.748;14.326;2023-05-10T07:47:02;24.30;40.90
51613;DHT22;37694;51.748;14.326;2023-05-10T07:49:27;24.30;40.90
51613;DHT22;37694;51.748;14.326;2023-05-10T07:51:53;24.30;40.80
51613;DHT22;37694;51.748;14.326;2023-05-10T07:54:18;24.30;40.80
51613;DHT22;37694;51.748;14.326;2023-05-10T07:56:44;24.30;40.70
51613;DHT22;37694;51.748;14.326;2023-05-10T07:59:15;24.40;40.70
51613;DHT22;37694;51.748;14.326;2023-05-10T08:01:42;24.40;40.70
51613;DHT22;37694;51.748;14.326;2023-05-10T08:04:07;24.40;40.70
51613;DHT22;37694;51.748;14.326;2023-05-10T08:06:34;24.40;40.80
51613;DHT22;37694;51.748;14.326;2023-05-10T08:09:00;24.40;40.70
51613;DHT22;37694;51.748;14.326;2023-05-10T08:11:26;24.50;40.70
51613;DHT22;37694;51.748;14.326;2023-05-10T08:13:53;24.50;40.60
51613;DHT22;37694;51.748;14.326;2023-05-10T08:16:19;24.50;40.60
51613;DHT22;37694;51.748;14.326;2023-05-10T08:18:45;24.50;40.60
51613;DHT22;37694;51.748;14.326;2023-05-10T08:21:12;24.50;40.60
51613;DHT22;37694;51.748;14.326;2023-05-10T08:23:38;24.50;40.60
51613;DHT22;37694;51.748;14.326;2023-05-10T08:26:04;24.60;40.60
51613;DHT22;37694;51.748;14.326;2023-05-10T08:28:30;24.60;40.60
51613;DHT22;37694;51.748;14.326;2023-05-10T08:30:56;24.60;40.60
51613;DHT22;37694;51.748;14.326;2023-05-10T08:33:22;24.60;40.50
51613;DHT22;37694;51.748;14.326;2023-05-10T08:35:47;24.70;40.60
51613;DHT22;37694;51.748;14.326;2023-05-10T08:38:13;24.70;40.50
51613;DHT22;37694;51.748;14.326;2023-05-10T08:40:41;24.70;40.50
51613;DHT22;37694;51.748;14.326;2023-05-10T08:43:12;24.70;40.50
51613;DHT22;37694;51.748;14.326;2023-05-10T08:45:42;24.70;40.40
51613;DHT22;37694;51.748;14.326;2023-05-10T08:48:10;24.80;40.40
51613;DHT22;37694;51.748;14.326;2023-05-10T08:50:37;24.80;40.30
51613;DHT22;37694;51.748;14.326;2023-05-10T08:53:11;24.80;40.30
51613;DHT22;37694;51.748;14.326;2023-05-10T08:55:37;24.80;40.30
51613;DHT22;37694;51.748;14.326;2023-05-10T08:58:04;24.90;40.30
51613;DHT22;37694;51.748;14.326;2023-05-10T09:00:30;24.90;40.20
51613;DHT22;37694;51.748;14.326;2023-05-10T09:02:58;24.90;40.20
51613;DHT22;37694;51.748;14.326;2023-05-10T09:05:24;24.90;40.10
51613;DHT22;37694;51.748;14.326;2023-05-10T09:07:50;24.90;40.10
51613;DHT22;37694;51.748;14.326;2023-05-10T09:10:16;25.00;40.10
51613;DHT22;37694;51.748;14.326;2023-05-10T09:12:42;25.00;40.10
51613;DHT22;37694;51.748;14.326;2023-05-10T09:15:09;25.00;40.00
51613;DHT22;37694;51.748;14.326;2023-05-10T09:17:36;25.00;39.90
51613;DHT22;37694;51.748;14.326;2023-05-10T09:20:04;25.10;39.90
51613;DHT22;37694;51.748;14.326;2023-05-10T09:22:30;25.10;39.90
51613;DHT22;37694;51.748;14.326;2023-05-10T09:27:33;25.20;39.80
51613;DHT22;37694;51.748;14.326;2023-05-10T09:29:58;25.20;39.80
51613;DHT22;37694;51.748;14.326;2023-05-10T09:32:44;25.20;39.80
51613;DHT22;37694;51.748;14.326;2023-05-10T09:35:21;25.20;39.60
51613;DHT22;37694;51.748;14.326;2023-05-10T09:37:50;25.20;39.70
51613;DHT22;37694;51.748;14.326;2023-05-10T09:40:18;25.30;39.70
51613;DHT22;37694;51.748;14.326;2023-05-10T09:43:07;25.30;39.60
51613;DHT22;37694;51.748;14.326;2023-05-10T09:45:36;25.30;39.50
51613;DHT22;37694;51.748;14.326;2023-05-10T09:48:02;25.30;39.60
51613;DHT22;37694;51.748;14.326;2023-05-10T09:50:29;25.30;39.60
51613;DHT22;37694;51.748;14.326;2023-05-10T09:53:00;25.40;39.60
51613;DHT22;37694;51.748;14.326;2023-05-10T09:58:06;25.40;39.40
51613;DHT22;37694;51.748;14.326;2023-05-10T10:00:43;25.50;39.60
51613;DHT22;37694;51.748;14.326;2023-05-10T10:03:17;25.50;39.40
51613;DHT22;37694;51.748;14.326;2023-05-10T10:05:43;25.50;39.40
51613;DHT22;37694;51.748;14.326;2023-05-10T10:08:10;25.60;39.50
51613;DHT22;37694;51.748;14.326;2023-05-10T10:10:36;25.50;39.30
51613;DHT22;37694;51.748;14.326;2023-05-10T10:13:01;25.60;39.40
51613;DHT22;37694;51.748;14.326;2023-05-10T10:15:27;25.60;39.30
51613;DHT22;37694;51.748;14.326;2023-05-10T10:17:54;25.60;39.30
51613;DHT22;37694;51.748;14.326;2023-05-10T10:20:20;25.70;39.30
51613;DHT22;37694;51.748;14.326;2023-05-10T10:22:47;25.70;39.30
51613;DHT22;37694;51.748;14.326;2023-05-10T10:25:14;25.70;39.20
51613;DHT22;37694;51.748;14.326;2023-05-10T10:35:36;25.80;39.10
51613;DHT22;37694;51.748;14.326;2023-05-10T10:38:02;25.80;39.20
51613;DHT22;37694;51.748;14.326;2023-05-10T10:40:30;25.80;39.20
51613;DHT22;37694;51.748;14.326;2023-05-10T10:42:56;25.90;39.10
51613;DHT22;37694;51.748;14.326;2023-05-10T10:45:24;25.90;39.10
51613;DHT22;37694;51.748;14.326;2023-05-10T10:48:24;26.00;39.10
51613;DHT22;37694;51.748;14.326;2023-05-10T10:50:59;26.00;39.00
51613;DHT22;37694;51.748;14.326;2023-05-10T10:53:27;26.00;39.00
51613;DHT22;37694;51.748;14.326;2023-05-10T10:56:08;26.00;39.00
51613;DHT22;37694;51.748;14.326;2023-05-10T10:58:38;26.10;39.00
51613;DHT22;37694;51.748;14.326;2023-05-10T11:01:15;26.10;39.00
51613;DHT22;37694;51.748;14.326;2023-05-10T11:06:31;26.10;38.80
51613;DHT22;37694;51.748;14.326;2023-05-10T11:08:58;26.10;38.80
51613;DHT22;37694;51.748;14.326;2023-05-10T11:11:24;26.10;38.80
51613;DHT22;37694;51.748;14.326;2023-05-10T11:13:50;26.20;38.80
51613;DHT22;37694;51.748;14.326;2023-05-10T11:16:23;26.20;38.70
51613;DHT22;37694;51.748;14.326;2023-05-10T11:18:53;26.30;38.70
51613;DHT22;37694;51.748;14.326;2023-05-10T11:21:19;26.20;38.70
51613;DHT22;37694;51.748;14.326;2023-05-10T11:23:52;26.20;38.70
51613;DHT22;37694;51.748;14.326;2023-05-10T11:26:22;26.30;38.70
51613;DHT22;37694;51.748;14.326;2023-05-10T11:28:50;26.30;38.60
51613;DHT22;37694;51.748;14.326;2023-05-10T11:31:17;26.40;38.70
51613;DHT22;37694;51.748;14.326;2023-05-10T11:33:45;26.40;38.80
51613;DHT22;37694;51.748;14.326;2023-05-10T11:36:12;26.40;38.70
51613;DHT22;37694;51.748;14.326;2023-05-10T11:38:37;26.40;38.70
51613;DHT22;37694;51.748;14.326;2023-05-10T11:41:03;26.40;38.70
51613;DHT22;37694;51.748;14.326;2023-05-10T11:43:29;26.50;38.70
51613;DHT22;37694;51.748;14.326;2023-05-10T11:45:56;26.40;38.50
51613;DHT22;37694;51.748;14.326;2023-05-10T11:48:22;26.50;38.50
51613;DHT22;37694;51.748;14.326;2023-05-10T11:50:49;26.50;38.50
51613;DHT22;37694;51.748;14.326;2023-05-10T11:53:15;26.50;38.50
51613;DHT22;37694;51.748;14.326;2023-05-10T11:55:41;26.50;38.50
51613;DHT22;37694;51.748;14.326;2023-05-10T11:58:06;26.50;38.40
51613;DHT22;37694;51.748;14.326;2023-05-10T12:00:32;26.60;38.40
51613;DHT22;37694;51.748;14.326;2023-05-10T12:03:00;26.60;38.20
51613;DHT22;37694;51.748;14.326;2023-05-10T12:05:26;26.60;38.30
51613;DHT22;37694;51.748;14.326;2023-05-10T12:07:52;26.60;38.30
51613;DHT22;37694;51.748;14.326;2023-05-10T12:10:25;26.70;38.30
51613;DHT22;37694;51.748;14.326;2023-05-10T12:12:52;26.70;38.20
51613;DHT22;37694;51.748;14.326;2023-05-10T12:15:23;26.70;38.60
51613;DHT22;37694;51.748;14.326;2023-05-10T12:17:49;26.80;38.20
51613;DHT22;37694;51.748;14.326;2023-05-10T12:20:17;26.80;38.20
51613;DHT22;37694;51.748;14.326;2023-05-10T12:22:53;26.80;38.00
51613;DHT22;37694;51.748;14.326;2023-05-10T12:25:21;26.90;38.00
51613;DHT22;37694;51.748;14.326;2023-05-10T12:27:57;26.90;38.00
51613;DHT22;37694;51.748;14.326;2023-05-10T12:30:28;26.90;37.90
51613;DHT22;37694;51.748;14.326;2023-05-10T12:35:30;27.00;37.80
51613;DHT22;37694;51.748;14.326;2023-05-10T12:37:56;27.00;37.90
51613;DHT22;37694;51.748;14.326;2023-05-10T12:40:22;27.00;37.90
51613;DHT22;37694;51.748;14.326;2023-05-10T12:42:47;27.00;37.90
51613;DHT22;37694;51.748;14.326;2023-05-10T12:45:14;27.00;37.90
51613;DHT22;37694;51.748;14.326;2023-05-10T12:47:40;27.00;37.80
51613;DHT22;37694;51.748;14.326;2023-05-10T12:50:06;27.10;37.90
51613;DHT22;37694;51.748;14.326;2023-05-10T12:52:32;27.10;37.90
51613;DHT22;37694;51.748;14.326;2023-05-10T12:54:59;27.10;37.90
51613;DHT22;37694;51.748;14.326;2023-05-10T12:57:25;27.10;37.80
51613;DHT22;37694;51.748;14.326;2023-05-10T12:59:51;27.10;37.80
51613;DHT22;37694;51.748;14.326;2023-05-10T13:02:16;27.10;37.90
51613;DHT22;37694;51.748;14.326;2023-05-10T13:04:46;27.10;37.90
51613;DHT22;37694;51.748;14.326;2023-05-10T13:07:12;27.10;37.90
51613;DHT22;37694;51.748;14.326;2023-05-10T13:09:38;27.10;37.90
51613;DHT22;37694;51.748;14.326;2023-05-10T13:12:04;27.10;37.80
51613;DHT22;37694;51.748;14.326;2023-05-10T13:14:30;27.10;37.70
51613;DHT22;37694;51.748;14.326;2023-05-10T13:16:56;27.10;37.90
51613;DHT22;37694;51.748;14.326;2023-05-10T13:19:21;27.10;37.80
51613;DHT22;37694;51.748;14.326;2023-05-10T13:21:47;27.10;37.80
51613;DHT22;37694;51.748;14.326;2023-05-10T13:24:13;27.10;37.80
51613;DHT22;37694;51.748;14.326;2023-05-10T13:26:42;27.10;37.70
51613;DHT22;37694;51.748;14.326;2023-05-10T13:29:08;27.10;37.80
51613;DHT22;37694;51.748;14.326;2023-05-10T13:31:34;27.10;37.80
51613;DHT22;37694;51.748;14.326;2023-05-10T13:34:01;27.10;37.80
51613;DHT22;37694;51.748;14.326;2023-05-10T13:36:26;27.20;37.80
51613;DHT22;37694;51.748;14.326;2023-05-10T13:38:52;27.20;37.90
51613;DHT22;37694;51.748;14.326;2023-05-10T13:41:18;27.20;37.90
51613;DHT22;37694;51.748;14.326;2023-05-10T13:43:43;27.20;37.90
51613;DHT22;37694;51.748;14.326;2023-05-10T13:46:09;27.20;37.80
51613;DHT22;37694;51.748;14.326;2023-05-10T13:48:34;27.20;37.70
51613;DHT22;37694;51.748;14.326;2023-05-10T13:51:02;27.20;37.70
51613;DHT22;37694;51.748;14.326;2023-05-10T13:53:28;27.20;37.70
51613;DHT22;37694;51.748;14.326;2023-05-10T13:55:53;27.20;37.80
51613;DHT22;37694;51.748;14.326;2023-05-10T13:58:19;27.20;37.70
51613;DHT22;37694;51.748;14.326;2023-05-10T14:00:45;27.20;37.70
51613;DHT22;37694;51.748;14.326;2023-05-10T14:03:11;27.20;37.90
51613;DHT22;37694;51.748;14.326;2023-05-10T14:05:36;27.20;37.80
51613;DHT22;37694;51.748;14.326;2023-05-10T14:08:02;27.20;37.80
51613;DHT22;37694;51.748;14.326;2023-05-10T14:10:29;27.20;37.80
51613;DHT22;37694;51.748;14.326;2023-05-10T14:12:55;27.20;37.80
51613;DHT22;37694;51.748;14.326;2023-05-10T14:15:21;27.20;37.80
51613;DHT22;37694;51.748;14.326;2023-05-10T14:17:46;27.20;37.80
51613;DHT22;37694;51.748;14.326;2023-05-10T14:20:12;27.20;37.80
51613;DHT22;37694;51.748;14.326;2023-05-10T14:22:38;27.20;37.90
51613;DHT22;37694;51.748;14.326;2023-05-10T14:25:03;27.20;37.80
51613;DHT22;37694;51.748;14.326;2023-05-10T14:27:29;27.20;37.90
51613;DHT22;37694;51.748;14.326;2023-05-10T14:29:55;27.20;37.80
51613;DHT22;37694;51.748;14.326;2023-05-10T14:32:21;27.20;37.90
51613;DHT22;37694;51.748;14.326;2023-05-10T14:34:47;27.20;37.90
51613;DHT22;37694;51.748;14.326;2023-05-10T14:37:13;27.20;37.90
51613;DHT22;37694;51.748;14.326;2023-05-10T14:39:39;27.20;37.80
51613;DHT22;37694;51.748;14.326;2023-05-10T14:42:05;27.20;37.90
51613;DHT22;37694;51.748;14.326;2023-05-10T14:44:31;27.20;37.90
51613;DHT22;37694;51.748;14.326;2023-05-10T14:46:57;27.20;37.90
51613;DHT22;37694;51.748;14.326;2023-05-10T14:49:22;27.20;37.90
51613;DHT22;37694;51.748;14.326;2023-05-10T14:51:50;27.20;37.90
51613;DHT22;37694;51.748;14.326;2023-05-10T14:54:16;27.20;38.00
51613;DHT22;37694;51.748;14.326;2023-05-10T14:56:42;27.10;37.90
51613;DHT22;37694;51.748;14.326;2023-05-10T14:59:08;27.20;38.00
51613;DHT22;37694;51.748;14.326;2023-05-10T15:01:34;27.10;37.90
51613;DHT22;37694;51.748;14.326;2023-05-10T15:04:03;27.10;38.00
51613;DHT22;37694;51.748;14.326;2023-05-10T15:06:33;27.10;37.90
51613;DHT22;37694;51.748;14.326;2023-05-10T15:09:00;27.10;37.80
51613;DHT22;37694;51.748;14.326;2023-05-10T15:11:26;27.10;38.00
51613;DHT22;37694;51.748;14.326;2023-05-10T15:13:52;27.10;38.00
51613;DHT22;37694;51.748;14.326;2023-05-10T15:16:17;27.10;38.00
51613;DHT22;37694;51.748;14.326;2023-05-10T15:18:43;27.00;37.90
51613;DHT22;37694;51.748;14.326;2023-05-10T15:21:09;27.00;38.00
51613;DHT22;37694;51.748;14.326;2023-05-10T15:23:35;27.00;37.90
51613;DHT22;37694;51.748;14.326;2023-05-10T15:26:00;27.00;37.90
51613;DHT22;37694;51.748;14.326;2023-05-10T15:28:26;27.00;37.90
51613;DHT22;37694;51.748;14.326;2023-05-10T15:30:52;27.00;37.90
51613;DHT22;37694;51.748;14.326;2023-05-10T15:33:17;27.00;38.00
51613;DHT22;37694;51.748;14.326;2023-05-10T15:35:43;27.00;38.00
51613;DHT22;37694;51.748;14.326;2023-05-10T15:38:09;26.90;37.90
51613;DHT22;37694;51.748;14.326;2023-05-10T15:40:35;26.90;38.00
51613;DHT22;37694;51.748;14.326;2023-05-10T15:43:00;26.90;38.00
51613;DHT22;37694;51.748;14.326;2023-05-10T15:45:26;26.90;37.90
51613;DHT22;37694;51.748;14.326;2023-05-10T15:47:52;26.90;37.90
51613;DHT22;37694;51.748;14.326;2023-05-10T15:50:18;26.90;37.90
51613;DHT22;37694;51.748;14.326;2023-05-10T15:52:43;26.90;38.00